DW7880 Acharnes GR current weather conditions

sailwx.info

Air temperature 12.8° C
Dewpoint 5.4° C

Last reported at 2019-Dec-06 14:58 UTC.
Time now 2019-Dec-06 16:07 UTC

Location: N 38°05' E 023°42'.
View on Google Maps.

See reports from other nearby stations

  
Tides and Currents Weather Stations Pressure Air Temp Water Temp Dewpoint Dewpoint Depression Visibility Wind Speed Wind Dir Waves Ship Positions
date/time (UTC)wind fromknots sea level pressurealtimeterstation pressurevisibilityair tempwater tempwave heightnotes
2019-Dec-06 14:58 12.8
2019-Dec-06 14:05 155 13.3
2019-Dec-06 13:56 151 1 gusting 5 13.3
2019-Dec-06 13:47 141 1 gusting 5 13.9
2019-Dec-06 13:38 178 1 gusting 6 13.9
2019-Dec-06 13:20 167 1 gusting 6 13.9
2019-Dec-06 13:11 060 0 gusting 3 13.3
2019-Dec-06 12:53 085 2 gusting 4 13.9
2019-Dec-06 12:44 076 1 gusting 5 13.9
2019-Dec-06 12:35 096 3 gusting 6 14.4
2019-Dec-06 12:26 103 4 gusting 9 13.9
2019-Dec-06 12:17 070 2 gusting 6 13.9
2019-Dec-06 11:41 097 2 gusting 7 14.4
2019-Dec-06 11:32 057 2 gusting 6 13.9
2019-Dec-06 11:23 096 2 gusting 6 14.4
2019-Dec-05 10:02 069 3 gusting 7 10.6
2019-Dec-05 09:53 057 4 gusting 7 10.6
2019-Dec-05 09:17 059 6 gusting 11 10.6
2019-Dec-05 08:50 076 5 gusting 10 10.6
2019-Dec-05 08:41 059 6 gusting 13 11.1
2019-Dec-05 08:23 074 3 gusting 7 10.6
2019-Dec-05 07:47 070 4 gusting 9 10.6
2019-Dec-05 07:29 063 4 gusting 12 10.6
2019-Dec-05 06:53 051 5 gusting 10 10.6
2019-Dec-05 06:44 049 5 gusting 12 10.0
2019-Dec-05 06:35 078 3 gusting 10 10.0
2019-Dec-05 06:26 063 4 gusting 10 10.0
2019-Dec-05 06:17 069 4 gusting 8 9.4
2019-Dec-05 05:59 070 5 gusting 13 9.4
2019-Dec-05 05:50 058 6 gusting 13 9.4
2019-Dec-05 05:41 061 4 gusting 11 8.9
2019-Dec-05 05:14 050 2 gusting 6 8.9
2019-Dec-05 04:56 022 0 gusting 3 8.3
2019-Dec-05 04:29 046 2 gusting 6 8.9
2019-Dec-05 03:26 039 0 gusting 3 8.3
2019-Dec-05 02:59 007 2 gusting 6 8.3
2019-Dec-05 02:50 030 2 gusting 7 8.9
2019-Dec-05 02:32 066 4 gusting 12 8.9
2019-Dec-05 02:23 071 4 gusting 12 8.9
2019-Dec-05 01:38 071 3 gusting 9 8.9
2019-Dec-05 01:29 061 2 gusting 6 8.9
2019-Dec-05 01:11 046 3 gusting 6 8.9
2019-Dec-05 01:02 037 4 gusting 10 9.4
2019-Dec-05 00:17 059 6 gusting 13 9.4
2019-Dec-05 00:08 046 5 gusting 11 9.4
2019-Dec-04 23:50 049 4 gusting 9 9.4
2019-Dec-04 23:05 089 3 gusting 9 9.4
2019-Dec-04 22:56 056 6 gusting 13 9.4
2019-Dec-04 22:47 058 6 gusting 13 9.4
2019-Dec-04 22:38 060 7 gusting 19 10.0
2019-Dec-04 22:29 064 7 gusting 19 9.4
2019-Dec-04 22:20 058 7 gusting 16 9.4
2019-Dec-04 22:11 054 5 gusting 12 9.4
2019-Dec-04 22:02 040 5 gusting 13 10.0
2019-Dec-04 21:53 058 6 gusting 14 10.0
2019-Dec-04 21:44 052 6 gusting 14 9.4
2019-Dec-04 21:35 054 6 gusting 13 9.4
2019-Dec-04 21:17 048 4 gusting 13 10.0
2019-Dec-04 21:08 071 6 gusting 17 10.0
2019-Dec-04 20:41 078 6 gusting 13 9.4
2019-Dec-04 20:32 072 5 gusting 12 9.4
2019-Dec-04 20:05 071 3 gusting 9 10.0
2019-Dec-04 19:47 069 3 gusting 11 10.0
2019-Dec-04 19:38 069 3 gusting 11 10.0
2019-Dec-04 19:29 059 3 gusting 8 10.0
2019-Dec-04 19:11 067 4 gusting 11 10.0
2019-Dec-04 19:02 041 4 gusting 14 10.0
2019-Dec-04 18:26 055 5 gusting 12 9.4
2019-Dec-04 18:08 069 6 gusting 13 10.0
2019-Dec-04 17:41 048 6 gusting 13 10.0
2019-Dec-04 17:32 060 5 gusting 12 10.0
2019-Dec-04 17:14 068 5 gusting 14 10.0
2019-Dec-04 16:47 059 5 gusting 13 10.0
2019-Dec-04 16:38 061 5 gusting 13 10.0
2019-Dec-04 16:29 061 6 gusting 13 10.0
2019-Dec-04 16:20 057 5 gusting 12 10.0